Suula — OJKZ — position and weather

sailwx.info

Track history (hours):
 
Tides and Currents Weather Stations Pressure Air Temp Water Temp Dewpoint Dewpoint Depression Visibility Wind Speed Wind Dir Waves Ship Positions

Suula

Last reported at 2016-Aug-26 13:33 UTC. Time now 2016-Aug-26 13:44 UTC.
Position N 59°39' E 023°57'.

Length 140 m; draft 6.5 m.

Type: Tanker. MMSI: 230956996.

Date/timePositionNaut miles runAvg speedWind from/ knotsBaromVisibWave heightAir tempDewpointWater temp
2016-Aug-26 13:33N 59°39' E 023°57'1312.9
2016-Aug-26 12:33N 59°36' E 023°33'6713.3
2016-Aug-26 07:32N 59°31' E 021°21'  
2016-Aug-23 02:28N 59°33' E 021°11'2813.0
2016-Aug-23 00:17N 59°32' E 022°07'3613.3
2016-Aug-22 21:33N 59°39' E 023°17'1313.4
2016-Aug-22 20:34N 59°42' E 023°43'2913.3
2016-Aug-22 18:22N 59°49' E 024°39'40 2.8
2016-Aug-22 04:16N 60°18' E 025°33'0 0.0
2016-Aug-22 03:31N 60°18' E 025°33'0 0.0
2016-Aug-22 02:31N 60°18' E 025°33'0 0.0
2016-Aug-22 01:31N 60°18' E 025°33'0 0.0
2016-Aug-22 00:28N 60°18' E 025°33'0 0.0
2016-Aug-21 23:28N 60°18' E 025°33'0 0.0
2016-Aug-21 22:31N 60°18' E 025°33'0 0.0
2016-Aug-21 21:31N 60°18' E 025°33'0 0.0
2016-Aug-21 20:31N 60°18' E 025°33'0 0.0
2016-Aug-21 19:31N 60°18' E 025°33'0 0.0
2016-Aug-21 18:31N 60°18' E 025°33'0 0.0
2016-Aug-21 17:28N 60°18' E 025°33'0 0.0
2016-Aug-21 16:31N 60°18' E 025°33'0 0.0
2016-Aug-21 15:28N 60°18' E 025°33'0 0.0
2016-Aug-21 14:28N 60°18' E 025°33'0 0.0
2016-Aug-21 13:16N 60°18' E 025°33'14 8.3
2016-Aug-21 11:34N 60°04' E 025°34'2315.4
2016-Aug-21 10:05N 59°48' E 025°02'916.2
2016-Aug-21 09:34N 59°46' E 024°46'1616.3
2016-Aug-21 08:34N 59°42' E 024°15'1716.7
2016-Aug-21 07:34N 59°35' E 023°44'1111.4
2016-Aug-21 06:33N 59°32' E 023°23'7 7.2
2016-Aug-21 05:33N 59°32' E 023°09'1515.2
2016-Aug-21 04:33N 59°27' E 022°40'1515.3
2016-Aug-21 03:33N 59°18' E 022°16'1514.9
2016-Aug-21 02:33N 59°08' E 021°54'  
2016-Aug-18 05:33N 59°37' E 023°07'1515.5
2016-Aug-18 04:33N 59°41' E 023°36'1615.4
2016-Aug-18 03:33N 59°45' E 024°05'1615.6
2016-Aug-18 02:33N 59°49' E 024°35'  
Track history (hours):
 
Tides and Currents Weather Stations Pressure Air Temp Water Temp Dewpoint Dewpoint Depression Visibility Wind Speed Wind Dir Waves Ship Positions

Suula

Last reported at 2016-Aug-26 13:33 UTC. Time now 2016-Aug-26 13:44 UTC.
Position N 59°39' E 023°57'.

Length 140 m; draft 6.5 m.

Type: Tanker. MMSI: 230956996.

Date/timePositionNaut miles runAvg speedWind from/ knotsBaromVisibWave heightAir tempDewpointWater temp
2016-Aug-26 13:33N 59°39' E 023°57'1312.9
2016-Aug-26 12:33N 59°36' E 023°33'6713.3
2016-Aug-26 07:32N 59°31' E 021°21'  
2016-Aug-23 02:28N 59°33' E 021°11'2813.0
2016-Aug-23 00:17N 59°32' E 022°07'3613.3
2016-Aug-22 21:33N 59°39' E 023°17'1313.4
2016-Aug-22 20:34N 59°42' E 023°43'2913.3
2016-Aug-22 18:22N 59°49' E 024°39'40 2.8
2016-Aug-22 04:16N 60°18' E 025°33'0 0.0
2016-Aug-22 03:31N 60°18' E 025°33'0 0.0
2016-Aug-22 02:31N 60°18' E 025°33'0 0.0
2016-Aug-22 01:31N 60°18' E 025°33'0 0.0
2016-Aug-22 00:28N 60°18' E 025°33'0 0.0
2016-Aug-21 23:28N 60°18' E 025°33'0 0.0
2016-Aug-21 22:31N 60°18' E 025°33'0 0.0
2016-Aug-21 21:31N 60°18' E 025°33'0 0.0
2016-Aug-21 20:31N 60°18' E 025°33'0 0.0
2016-Aug-21 19:31N 60°18' E 025°33'0 0.0
2016-Aug-21 18:31N 60°18' E 025°33'0 0.0
2016-Aug-21 17:28N 60°18' E 025°33'0 0.0
2016-Aug-21 16:31N 60°18' E 025°33'0 0.0
2016-Aug-21 15:28N 60°18' E 025°33'0 0.0
2016-Aug-21 14:28N 60°18' E 025°33'0 0.0
2016-Aug-21 13:16N 60°18' E 025°33'14 8.3
2016-Aug-21 11:34N 60°04' E 025°34'2315.4
2016-Aug-21 10:05N 59°48' E 025°02'916.2
2016-Aug-21 09:34N 59°46' E 024°46'1616.3
2016-Aug-21 08:34N 59°42' E 024°15'1716.7
2016-Aug-21 07:34N 59°35' E 023°44'1111.4
2016-Aug-21 06:33N 59°32' E 023°23'7 7.2
2016-Aug-21 05:33N 59°32' E 023°09'1515.2
2016-Aug-21 04:33N 59°27' E 022°40'1515.3
2016-Aug-21 03:33N 59°18' E 022°16'1514.9
2016-Aug-21 02:33N 59°08' E 021°54'  
2016-Aug-18 05:33N 59°37' E 023°07'1515.5
2016-Aug-18 04:33N 59°41' E 023°36'1615.4
2016-Aug-18 03:33N 59°45' E 024°05'1615.6
2016-Aug-18 02:33N 59°49' E 024°35'  

Dump ship's entire track history